Time;durP1;ratioP1;P1;durP2;ratioP2;P2;SDS_P1;SDS_P2;PMS_P1;PMS_P2;Temp;Humidity;BMP_temperature;BMP_pressure;BME280_temperature;BME280_humidity;BME280_pressure;Samples;Min_cycle;Max_cycle;Signal;HPM_P1;HPM_P2
2022/08/04 00:01:14;;;;;;;2.83;0.87;;;19.90;90.60;;;;;;5093882;28;20391;-67
2022/08/04 00:04:07;;;;;;;0.83;0.83;;;19.90;90.50;;;;;;5093776;28;20910;-67
2022/08/04 00:07:01;;;;;;;0.40;0.40;;;19.90;90.90;;;;;;5082334;28;20412;-66
2022/08/04 00:09:29;;;;;;;0.40;0.40;;;19.80;90.80;;;;;;5093668;28;20931;-67
2022/08/04 00:11:58;;;;;;;1.33;0.80;;;19.70;90.90;;;;;;5075712;28;20774;-67
2022/08/04 00:14:25;;;;;;;0.50;0.50;;;19.60;91.30;;;;;;5093684;28;20450;-67
2022/08/04 00:16:53;;;;;;;1.53;1.10;;;19.60;91.50;;;;;;5093489;28;20407;-68
2022/08/04 00:19:45;;;;;;;0.50;0.50;;;19.60;91.30;;;;;;5093502;28;20403;-67
2022/08/04 00:22:13;;;;;;;0.50;0.50;;;19.60;91.40;;;;;;5075133;28;20410;-68
2022/08/04 00:24:40;;;;;;;0.60;0.60;;;19.60;90.90;;;;;;5093467;28;20422;-69
2022/08/04 00:27:07;;;;;;;0.70;0.57;;;19.70;91.00;;;;;;5093497;28;20407;-68
2022/08/04 00:29:34;;;;;;;0.50;0.50;;;19.70;91.00;;;;;;5093469;28;20441;-68
2022/08/04 00:32:02;;;;;;;0.37;0.37;;;19.60;91.50;;;;;;5093709;28;20391;-67
2022/08/04 00:34:30;;;;;;;0.50;0.50;;;19.50;91.70;;;;;;5093359;28;20423;-67
2022/08/04 00:36:57;;;;;;;0.40;0.40;;;19.50;91.90;;;;;;5093661;28;20410;-68
2022/08/04 00:39:23;;;;;;;0.50;0.50;;;19.50;91.80;;;;;;5093396;28;20410;-68
2022/08/04 00:42:07;;;;;;;0.50;0.50;;;19.60;91.40;;;;;;5093403;28;20434;-67
2022/08/04 00:44:42;;;;;;;0.63;0.40;;;19.60;91.50;;;;;;5093300;28;20422;-68
2022/08/04 00:47:39;;;;;;;0.63;0.63;;;19.70;91.90;;;;;;5093583;28;20394;-67
2022/08/04 00:50:21;;;;;;;0.40;0.40;;;19.70;91.80;;;;;;5084835;28;20454;-67
2022/08/04 00:53:06;;;;;;;0.40;0.40;;;19.60;91.80;;;;;;5093713;28;20392;-67
2022/08/04 00:55:53;;;;;;;0.60;0.60;;;19.50;92.00;;;;;;5093219;28;20832;-67
2022/08/04 00:58:41;;;;;;;0.67;0.50;;;19.50;92.30;;;;;;5093114;28;20399;-66
2022/08/04 01:01:30;;;;;;;0.83;0.83;;;19.50;92.50;;;;;;5074949;28;20934;-67
2022/08/04 01:04:31;;;;;;;0.80;0.60;;;19.40;92.50;;;;;;5093264;28;20439;-68
2022/08/04 01:07:23;;;;;;;0.90;0.90;;;19.50;92.80;;;;;;5031033;28;20566;-68
2022/08/04 01:09:58;;;;;;;0.40;0.40;;;19.50;92.50;;;;;;5086025;28;20524;-68
2022/08/04 01:12:42;;;;;;;0.63;0.40;;;19.50;92.30;;;;;;5093191;28;20532;-66
2022/08/04 01:15:39;;;;;;;0.60;0.60;;;19.50;92.50;;;;;;5093161;28;20430;-68
2022/08/04 01:18:07;;;;;;;0.50;0.50;;;19.60;92.00;;;;;;5093971;28;20457;-69
2022/08/04 01:20:59;;;;;;;0.60;0.60;;;19.60;91.20;;;;;;5097010;28;20400;-67
2022/08/04 01:23:43;;;;;;;0.70;0.70;;;19.60;91.40;;;;;;5088362;28;20787;-68
2022/08/04 01:26:33;;;;;;;0.37;0.37;;;19.70;92.00;;;;;;5096937;28;20501;-67
2022/08/04 01:29:11;;;;;;;0.60;0.60;;;19.60;91.70;;;;;;5078378;28;20446;-68
2022/08/04 01:31:55;;;;;;;0.40;0.40;;;19.60;92.30;;;;;;5096827;28;20402;-67
2022/08/04 01:34:22;;;;;;;0.40;0.40;;;19.50;92.10;;;;;;5096551;28;20415;-69
2022/08/04 01:37:05;;;;;;;0.63;0.63;;;19.50;92.60;;;;;;5096737;28;20400;-67
2022/08/04 01:39:41;;;;;;;0.93;0.87;;;19.50;92.60;;;;;;5096578;28;20488;-66
2022/08/04 01:42:09;;;;;;;0.90;0.90;;;19.50;92.40;;;;;;5096709;28;20392;-67
2022/08/04 01:44:36;;;;;;;0.50;0.50;;;19.50;92.70;;;;;;5096480;28;20438;-68
2022/08/04 01:47:02;;;;;;;0.80;0.70;;;19.30;92.60;;;;;;5096760;28;20483;-68
2022/08/04 01:49:30;;;;;;;0.40;0.40;;;19.30;93.10;;;;;;5096215;28;20486;-68
2022/08/04 01:51:56;;;;;;;0.73;0.60;;;19.30;93.00;;;;;;5096427;28;20170;-69
2022/08/04 01:54:24;;;;;;;1.10;1.10;;;19.20;93.20;;;;;;5096099;28;20426;-68
2022/08/04 01:56:50;;;;;;;0.60;0.60;;;19.30;93.40;;;;;;5096158;28;20532;-69
2022/08/04 01:59:21;;;;;;;0.60;0.60;;;19.30;93.30;;;;;;5096016;28;20396;-68
2022/08/04 02:01:47;;;;;;;0.60;0.47;;;19.30;92.80;;;;;;5096136;28;20403;-68
2022/08/04 02:04:18;;;;;;;0.60;0.60;;;19.30;92.60;;;;;;5095940;28;20501;-68
2022/08/04 02:07:02;;;;;;;0.50;0.50;;;19.30;92.20;;;;;;5096053;28;20408;-67
2022/08/04 02:09:32;;;;;;;3.50;0.73;;;19.50;92.20;;;;;;5095594;28;20485;-67
2022/08/04 02:12:15;;;;;;;1.47;0.80;;;19.40;92.20;;;;;;5095958;28;20390;-68
2022/08/04 02:14:58;;;;;;;0.70;0.50;;;19.50;92.80;;;;;;5096050;28;20797;-66
2022/08/04 02:17:27;;;;;;;0.50;0.43;;;19.40;92.90;;;;;;5095966;28;20465;-66
2022/08/04 02:20:15;;;;;;;0.90;0.57;;;19.40;93.00;;;;;;5095790;28;20460;-67
2022/08/04 02:22:59;;;;;;;0.67;0.67;;;19.30;92.70;;;;;;5095930;28;20478;-68
2022/08/04 02:25:27;;;;;;;1.03;1.03;;;19.30;92.70;;;;;;5095634;28;20919;-68
2022/08/04 02:28:12;;;;;;;0.53;0.53;;;19.50;92.70;;;;;;5095586;28;20403;-68
2022/08/04 02:31:12;;;;;;;0.77;0.77;;;19.50;92.90;;;;;;5095400;28;20538;-67
2022/08/04 02:33:48;;;;;;;1.13;0.60;;;19.40;92.90;;;;;;5084285;28;20907;-67
2022/08/04 02:36:21;;;;;;;1.23;1.07;;;19.30;93.30;;;;;;5095597;28;20428;-69
2022/08/04 02:38:57;;;;;;;0.40;0.40;;;19.30;93.70;;;;;;5095358;28;20394;-68
2022/08/04 02:41:26;;;;;;;1.00;0.57;;;19.30;93.90;;;;;;5095392;28;20395;-68
2022/08/04 02:43:55;;;;;;;0.40;0.40;;;19.20;93.90;;;;;;5095549;28;20392;-68
2022/08/04 02:46:21;;;;;;;0.50;0.50;;;19.20;93.80;;;;;;5095219;28;20403;-69
2022/08/04 02:48:49;;;;;;;0.40;0.40;;;19.10;93.70;;;;;;5094948;28;20407;-66
2022/08/04 02:51:16;;;;;;;0.90;0.90;;;19.20;93.40;;;;;;5095528;28;20490;-69
2022/08/04 02:53:43;;;;;;;0.60;0.57;;;19.10;93.40;;;;;;5094963;28;20391;-66
2022/08/04 02:56:10;;;;;;;0.40;0.40;;;19.20;93.80;;;;;;5095372;28;20730;-67
2022/08/04 02:58:37;;;;;;;0.60;0.60;;;19.10;93.90;;;;;;5094797;28;20490;-67
2022/08/04 03:01:03;;;;;;;0.40;0.40;;;19.20;94.30;;;;;;5095096;28;20732;-68
2022/08/04 03:03:51;;;;;;;0.40;0.40;;;19.10;94.40;;;;;;5094747;28;20450;-67
2022/08/04 03:06:32;;;;;;;0.70;0.70;;;19.10;94.50;;;;;;5095030;28;20383;-67
2022/08/04 03:09:24;;;;;;;0.80;0.80;;;19.00;94.60;;;;;;5094662;28;20395;-67
2022/08/04 03:11:52;;;;;;;0.60;0.60;;;18.90;94.10;;;;;;5094787;28;20482;-68
2022/08/04 03:14:39;;;;;;;0.80;0.80;;;18.90;94.90;;;;;;5094811;28;20419;-68
2022/08/04 03:17:22;;;;;;;0.70;0.70;;;19.00;94.90;;;;;;5094741;28;20389;-68
2022/08/04 03:20:06;;;;;;;0.47;0.47;;;19.00;94.70;;;;;;5094618;28;20799;-69
2022/08/04 03:22:52;;;;;;;0.73;0.73;;;18.90;95.00;;;;;;5094558;28;20399;-66
2022/08/04 03:25:27;;;;;;;0.40;0.40;;;18.90;95.00;;;;;;5094386;28;20427;-68
2022/08/04 03:27:53;;;;;;;0.50;0.40;;;18.90;94.80;;;;;;5094488;28;20417;-68
2022/08/04 03:30:27;;;;;;;1.20;1.10;;;18.80;95.00;;;;;;5094443;28;20442;-67
2022/08/04 03:33:07;;;;;;;0.40;0.40;;;18.90;95.00;;;;;;5094275;28;20192;-66
2022/08/04 03:36:01;;;;;;;0.80;0.80;;;18.90;95.30;;;;;;5094379;28;20426;-67
2022/08/04 03:38:44;;;;;;;0.60;0.60;;;18.90;95.10;;;;;;5094316;28;20403;-68
2022/08/04 03:41:16;;;;;;;0.90;0.77;;;18.80;95.30;;;;;;5093686;28;20407;-67
2022/08/04 03:44:15;;;;;;;0.50;0.50;;;18.80;95.40;;;;;;5075951;28;20403;-68
2022/08/04 03:47:02;;;;;;;1.70;1.60;;;18.80;95.70;;;;;;5094215;28;20411;-67
2022/08/04 03:49:37;;;;;;;0.80;0.60;;;18.80;95.40;;;;;;5093801;28;20450;-67
2022/08/04 03:55:46;;;;;;;0.73;0.57;;;18.80;95.40;;;;;;5094196;28;20428;-66
2022/08/04 03:58:42;;;;;;;0.87;0.87;;;18.70;95.80;;;;;;5071320;28;20845;-67
2022/08/04 04:01:29;;;;;;;0.90;0.80;;;18.60;96.00;;;;;;5094165;28;20403;-69
2022/08/04 04:04:05;;;;;;;0.70;0.70;;;18.70;96.10;;;;;;5093489;28;20427;-66
2022/08/04 04:07:15;;;;;;;0.80;0.67;;;18.70;96.00;;;;;;5093838;28;20874;-69
2022/08/04 04:09:49;;;;;;;0.60;0.60;;;18.80;95.80;;;;;;5069631;28;20867;-67
2022/08/04 04:12:42;;;;;;;0.50;0.50;;;18.80;95.90;;;;;;5093608;28;20431;-66
2022/08/04 04:15:37;;;;;;;1.13;1.03;;;18.90;95.90;;;;;;5093798;28;20418;-68
2022/08/04 04:18:08;;;;;;;0.60;0.60;;;18.80;95.50;;;;;;5093602;28;20875;-66
2022/08/04 04:21:11;;;;;;;0.80;0.80;;;18.90;95.70;;;;;;5093744;28;20768;-67
2022/08/04 04:24:18;;;;;;;0.40;0.40;;;18.80;95.80;;;;;;5093550;28;20411;-67
2022/08/04 04:26:55;;;;;;;0.97;0.87;;;18.90;95.70;;;;;;5059353;28;20426;-66
2022/08/04 04:29:59;;;;;;;1.17;0.53;;;18.90;95.80;;;;;;5093403;28;20458;-67
2022/08/04 04:32:30;;;;;;;0.50;0.50;;;18.90;95.90;;;;;;5093618;28;20405;-68
2022/08/04 04:35:26;;;;;;;3.13;1.07;;;18.80;95.90;;;;;;5093600;28;20414;-66
2022/08/04 04:38:15;;;;;;;0.93;0.73;;;18.90;96.00;;;;;;5075160;28;20407;-67
2022/08/04 04:41:05;;;;;;;0.63;0.60;;;18.90;96.10;;;;;;5093520;28;20788;-69
2022/08/04 04:44:17;;;;;;;1.30;0.67;;;18.90;96.20;;;;;;5093592;28;20880;-69
2022/08/04 04:47:03;;;;;;;0.87;0.87;;;18.90;96.40;;;;;;5031142;28;20448;-67
2022/08/04 04:49:56;;;;;;;0.87;0.87;;;18.80;96.50;;;;;;5088936;28;20457;-68
2022/08/04 04:52:53;;;;;;;0.50;0.40;;;18.90;96.50;;;;;;5094907;28;20534;-66
2022/08/04 04:55:29;;;;;;;0.60;0.60;;;18.90;96.30;;;;;;5097428;28;20422;-66
2022/08/04 04:57:58;;;;;;;1.13;1.00;;;19.00;96.60;;;;;;5097352;28;20802;-67
2022/08/04 05:00:39;;;;;;;1.10;0.57;;;19.00;96.60;;;;;;5097238;28;20445;-68
2022/08/04 05:03:36;;;;;;;0.70;0.70;;;19.10;96.50;;;;;;5097225;28;20781;-68
2022/08/04 05:06:19;;;;;;;0.40;0.40;;;19.40;96.80;;;;;;5096423;28;20450;-68
2022/08/04 05:08:48;;;;;;;0.77;0.77;;;19.80;97.10;;;;;;5096987;28;20406;-68
2022/08/04 05:11:28;;;;;;;0.40;0.40;;;20.10;96.50;;;;;;5097513;28;20407;-67
2022/08/04 05:13:58;;;;;;;0.80;0.80;;;20.40;95.90;;;;;;5097078;28;20398;-68
2022/08/04 05:16:39;;;;;;;0.73;0.73;;;20.60;95.60;;;;;;5096995;28;20406;-67
2022/08/04 05:19:23;;;;;;;0.50;0.50;;;20.90;95.20;;;;;;5096810;28;20428;-69
2022/08/04 05:21:58;;;;;;;1.03;0.93;;;21.10;94.90;;;;;;5097133;28;20409;-69
2022/08/04 05:24:26;;;;;;;1.07;1.07;;;21.40;94.60;;;;;;5096880;28;20430;-69
2022/08/04 05:26:54;;;;;;;0.90;0.63;;;21.60;94.20;;;;;;5094587;28;20899;-67
2022/08/04 05:29:32;;;;;;;0.60;0.60;;;21.80;93.50;;;;;;5096523;28;20549;-68
2022/08/04 05:32:01;;;;;;;0.50;0.50;;;22.30;93.00;;;;;;5095282;28;20413;-69
2022/08/04 05:34:39;;;;;;;0.70;0.70;;;23.00;92.00;;;;;;5094529;28;20421;-68
2022/08/04 05:37:13;;;;;;;1.27;0.70;;;23.70;90.90;;;;;;5094795;28;20489;-69
2022/08/04 05:39:52;;;;;;;0.70;0.70;;;24.60;88.90;;;;;;5095673;28;20414;-67
2022/08/04 05:42:19;;;;;;;0.60;0.60;;;25.30;85.90;;;;;;5095959;28;20493;-67
2022/08/04 05:44:45;;;;;;;0.40;0.40;;;25.50;84.40;;;;;;5095884;28;20431;-68
2022/08/04 05:47:12;;;;;;;0.60;0.60;;;25.40;83.60;;;;;;5096451;28;20410;-66
2022/08/04 05:49:40;;;;;;;0.60;0.60;;;25.30;83.60;;;;;;5096241;28;20448;-67
2022/08/04 05:52:08;;;;;;;0.70;0.70;;;25.50;82.70;;;;;;5096522;28;20381;-67
2022/08/04 05:54:36;;;;;;;0.40;0.40;;;25.40;82.90;;;;;;5096229;28;20876;-66
2022/08/04 05:57:03;;;;;;;0.60;0.60;;;25.20;84.30;;;;;;5096305;28;20498;-69
2022/08/04 05:59:30;;;;;;;0.60;0.60;;;25.00;84.10;;;;;;5096129;28;20437;-68
2022/08/04 06:01:59;;;;;;;0.70;0.70;;;25.00;83.80;;;;;;5096245;28;20407;-66
2022/08/04 06:04:37;;;;;;;0.40;0.40;;;25.00;84.70;;;;;;5095383;28;21003;-67
2022/08/04 06:07:04;;;;;;;0.60;0.60;;;24.90;84.80;;;;;;5096302;28;20464;-69
2022/08/04 06:09:30;;;;;;;0.93;0.93;;;24.90;85.50;;;;;;5095766;28;20432;-67
2022/08/04 06:12:03;;;;;;;1.00;0.80;;;25.20;83.90;;;;;;5096018;28;20412;-68
2022/08/04 06:14:38;;;;;;;1.27;0.80;;;25.70;82.40;;;;;;5095900;28;20453;-67
2022/08/04 06:17:06;;;;;;;0.80;0.80;;;26.20;81.80;;;;;;5095111;28;20414;-70
2022/08/04 06:19:35;;;;;;;0.60;0.60;;;26.70;81.40;;;;;;5095553;28;20422;-66
2022/08/04 06:22:04;;;;;;;0.80;0.80;;;27.00;79.40;;;;;;5095814;28;20406;-69
2022/08/04 06:24:31;;;;;;;0.77;0.77;;;27.10;77.30;;;;;;5095637;28;20433;-69
2022/08/04 06:26:57;;;;;;;0.50;0.40;;;27.10;78.20;;;;;;5095692;28;20762;-68
2022/08/04 06:29:35;;;;;;;0.87;0.83;;;26.90;78.40;;;;;;5095558;28;20421;-67
2022/08/04 06:32:12;;;;;;;0.40;0.40;;;26.80;78.60;;;;;;5095635;28;20506;-69
2022/08/04 06:34:39;;;;;;;0.73;0.73;;;26.70;79.30;;;;;;5095832;28;20437;-69
2022/08/04 06:37:07;;;;;;;1.17;0.80;;;26.80;79.50;;;;;;5095555;28;20468;-68
2022/08/04 06:39:33;;;;;;;0.60;0.60;;;26.80;79.40;;;;;;5095427;28;20435;-68
2022/08/04 06:42:00;;;;;;;0.77;0.60;;;26.80;80.20;;;;;;5095556;28;20399;-69
2022/08/04 06:44:28;;;;;;;0.77;0.77;;;26.80;80.20;;;;;;5077301;28;20427;-69
2022/08/04 06:46:54;;;;;;;1.17;0.83;;;27.00;80.10;;;;;;5095322;28;20480;-67
2022/08/04 06:49:22;;;;;;;1.23;0.60;;;27.60;78.90;;;;;;5095071;28;20443;-69
2022/08/04 06:51:49;;;;;;;1.43;1.33;;;28.70;76.70;;;;;;5095346;28;20494;-68
2022/08/04 06:54:15;;;;;;;0.67;0.67;;;29.90;70.90;;;;;;5095054;28;20536;-70
2022/08/04 06:56:44;;;;;;;0.80;0.70;;;30.90;68.60;;;;;;5095100;28;20438;-69
2022/08/04 06:59:11;;;;;;;0.80;0.80;;;31.80;65.70;;;;;;5095097;28;20194;-69
2022/08/04 07:01:37;;;;;;;1.13;1.03;;;32.30;62.80;;;;;;5094998;28;20487;-67
2022/08/04 07:04:04;;;;;;;0.70;0.60;;;32.40;61.40;;;;;;5094924;28;20439;-67
2022/08/04 07:06:30;;;;;;;0.90;0.90;;;32.20;61.30;;;;;;5094963;28;20745;-68
2022/08/04 07:08:56;;;;;;;0.80;0.80;;;31.90;61.50;;;;;;5094636;28;20410;-68
2022/08/04 07:11:22;;;;;;;1.23;0.80;;;31.50;62.30;;;;;;5095030;28;20405;-69
2022/08/04 07:13:49;;;;;;;0.60;0.60;;;31.20;63.50;;;;;;5094735;28;20776;-68
2022/08/04 07:16:17;;;;;;;0.60;0.60;;;30.90;64.70;;;;;;5093755;28;20494;-67
2022/08/04 07:18:43;;;;;;;0.90;0.90;;;30.80;63.90;;;;;;5094617;28;20402;-68
2022/08/04 07:21:10;;;;;;;0.60;0.60;;;31.00;63.40;;;;;;5094764;28;20399;-67
2022/08/04 07:23:36;;;;;;;0.83;0.80;;;31.40;63.40;;;;;;5094775;28;20407;-69
2022/08/04 07:26:02;;;;;;;1.07;1.00;;;32.00;60.80;;;;;;5076298;28;20441;-69
2022/08/04 07:28:29;;;;;;;1.00;0.50;;;32.50;58.50;;;;;;5094305;28;20407;-69
2022/08/04 07:30:56;;;;;;;9.63;1.50;;;33.20;55.90;;;;;;5094451;28;20211;-69
2022/08/04 07:33:23;;;;;;;0.90;0.90;;;34.00;54.50;;;;;;5094686;28;20394;-69
2022/08/04 07:35:52;;;;;;;0.90;0.90;;;35.50;50.80;;;;;;5094309;28;20433;-68
2022/08/04 07:38:17;;;;;;;0.80;0.80;;;37.30;48.00;;;;;;5094363;28;20774;-68
2022/08/04 07:40:44;;;;;;;0.40;0.40;;;38.70;43.10;;;;;;5094550;28;20403;-69
2022/08/04 07:43:10;;;;;;;0.87;0.70;;;40.30;40.40;;;;;;5094759;28;20625;-69
2022/08/04 07:45:36;;;;;;;0.90;0.53;;;41.60;38.00;;;;;;5094540;28;20568;-69
2022/08/04 07:48:04;;;;;;;0.60;0.60;;;42.00;35.60;;;;;;5094146;28;20234;-69
2022/08/04 07:50:30;;;;;;;1.10;0.80;;;42.90;33.40;;;;;;5094229;28;20545;-69
2022/08/04 07:52:57;;;;;;;0.80;0.77;;;43.50;31.70;;;;;;5094817;28;20434;-70
2022/08/04 07:55:23;;;;;;;0.70;0.60;;;44.10;31.40;;;;;;5094034;28;20422;-69
2022/08/04 07:57:49;;;;;;;0.53;0.53;;;44.90;29.70;;;;;;5094119;28;20766;-70
2022/08/04 08:00:14;;;;;;;0.47;0.47;;;45.50;29.00;;;;;;5094131;28;20398;-69
2022/08/04 08:02:49;;;;;;;0.53;0.50;;;46.00;27.20;;;;;;5093826;28;20176;-70
2022/08/04 08:05:17;;;;;;;0.47;0.47;;;45.90;26.50;;;;;;5093933;28;20188;-68
2022/08/04 08:07:50;;;;;;;0.80;0.50;;;45.10;26.00;;;;;;5093702;28;20417;-69
2022/08/04 08:10:17;;;;;;;0.50;0.50;;;45.20;26.30;;;;;;5093979;28;20458;-69
2022/08/04 08:12:43;;;;;;;0.93;0.80;;;43.30;26.30;;;;;;5093876;28;20395;-69
2022/08/04 08:15:11;;;;;;;0.53;0.50;;;42.70;27.50;;;;;;5093594;28;20938;-68
2022/08/04 08:17:39;;;;;;;0.70;0.50;;;42.90;27.30;;;;;;5075600;28;20840;-69
2022/08/04 08:20:08;;;;;;;0.50;0.50;;;43.50;27.50;;;;;;5093921;28;20788;-69
2022/08/04 08:22:38;;;;;;;0.83;0.60;;;44.30;26.90;;;;;;5094181;28;20825;-70
2022/08/04 08:25:07;;;;;;;0.60;0.57;;;45.10;26.40;;;;;;5093697;28;20933;-70
2022/08/04 08:27:33;;;;;;;0.40;0.40;;;44.40;26.00;;;;;;5093477;28;20966;-69
2022/08/04 08:29:59;;;;;;;0.40;0.40;;;44.60;26.50;;;;;;5093666;28;20442;-70
2022/08/04 08:32:25;;;;;;;0.63;0.50;;;44.50;26.40;;;;;;5093679;28;20729;-70
2022/08/04 08:34:51;;;;;;;0.50;0.50;;;41.70;26.70;;;;;;5093144;28;20652;-69
2022/08/04 08:37:55;;;;;;;0.90;0.50;;;40.60;28.50;;;;;;5093372;28;20451;-69
2022/08/04 08:40:58;;;;;;;0.60;0.60;;;41.30;28.50;;;;;;5093520;28;20207;-68
2022/08/04 08:43:39;;;;;;;0.67;0.50;;;41.90;27.90;;;;;;5074883;28;20910;-69
2022/08/04 08:46:25;;;;;;;0.60;0.60;;;42.90;27.80;;;;;;5093479;28;20393;-70
2022/08/04 08:49:28;;;;;;;0.80;0.77;;;44.00;26.70;;;;;;5075232;28;20407;-68
2022/08/04 08:52:15;;;;;;;0.40;0.40;;;44.80;26.70;;;;;;5093443;28;20410;-68
2022/08/04 08:54:52;;;;;;;0.60;0.60;;;45.50;26.10;;;;;;5093777;28;20426;-70
2022/08/04 08:57:40;;;;;;;0.50;0.40;;;46.10;25.30;;;;;;5093386;28;20398;-70
2022/08/04 09:00:17;;;;;;;0.40;0.40;;;46.40;25.50;;;;;;5085125;28;20436;-68
2022/08/04 09:03:10;;;;;;;0.90;0.50;;;46.50;24.80;;;;;;5093397;28;20497;-68
2022/08/04 09:05:48;;;;;;;0.60;0.60;;;45.80;24.50;;;;;;5093233;28;20422;-70
2022/08/04 09:08:25;;;;;;;0.50;0.50;;;45.10;25.60;;;;;;5093156;28;20402;-69
2022/08/04 09:11:05;;;;;;;0.80;0.70;;;44.80;25.60;;;;;;5093056;28;20526;-69
2022/08/04 09:13:55;;;;;;;1.27;0.60;;;44.60;25.40;;;;;;5093458;28;20427;-70
2022/08/04 09:16:44;;;;;;;0.43;0.40;;;44.70;25.60;;;;;;5093255;28;20477;-69
2022/08/04 09:19:18;;;;;;;0.60;0.50;;;44.90;25.70;;;;;;5092953;28;20433;-70
2022/08/04 09:21:49;;;;;;;0.60;0.60;;;45.20;26.20;;;;;;5093394;28;20406;-69
2022/08/04 09:24:22;;;;;;;0.60;0.60;;;45.00;25.10;;;;;;5093171;28;20501;-70
2022/08/04 09:27:00;;;;;;;1.20;0.60;;;45.30;25.40;;;;;;5092979;28;20402;-71
2022/08/04 09:29:50;;;;;;;0.50;0.50;;;45.70;25.50;;;;;;5092793;28;20441;-69
2022/08/04 09:32:37;;;;;;;0.50;0.50;;;45.90;25.80;;;;;;5093227;28;20746;-69
2022/08/04 09:35:23;;;;;;;0.70;0.70;;;45.80;25.10;;;;;;5092976;28;20550;-70
2022/08/04 09:38:13;;;;;;;0.70;0.60;;;45.60;25.20;;;;;;5092865;28;20394;-70
2022/08/04 09:40:51;;;;;;;0.60;0.60;;;44.70;25.70;;;;;;5096305;28;20427;-68
2022/08/04 09:43:35;;;;;;;0.50;0.50;;;44.50;25.40;;;;;;5096817;28;20793;-69
2022/08/04 09:46:12;;;;;;;0.53;0.50;;;44.00;26.10;;;;;;5096977;28;20422;-68
2022/08/04 09:48:43;;;;;;;0.50;0.50;;;44.50;26.20;;;;;;5096405;28;20399;-70
2022/08/04 09:51:31;;;;;;;0.60;0.50;;;44.70;25.80;;;;;;5096536;28;20964;-69
2022/08/04 09:54:18;;;;;;;0.50;0.50;;;44.40;25.90;;;;;;5096508;28;20395;-69
2022/08/04 09:57:13;;;;;;;0.60;0.47;;;44.00;25.60;;;;;;5096577;28;20386;-70
2022/08/04 09:59:57;;;;;;;0.57;0.57;;;43.40;25.80;;;;;;5096288;28;20387;-69
2022/08/04 10:02:24;;;;;;;0.60;0.60;;;42.30;26.80;;;;;;5096302;28;20387;-70
2022/08/04 10:04:55;;;;;;;0.50;0.50;;;42.50;27.30;;;;;;5096326;28;20940;-69
2022/08/04 10:07:55;;;;;;;0.70;0.70;;;42.70;27.90;;;;;;5096540;28;20391;-68
2022/08/04 10:10:31;;;;;;;0.60;0.60;;;43.00;26.30;;;;;;5096151;28;20443;-68
2022/08/04 10:13:06;;;;;;;0.40;0.40;;;42.80;27.50;;;;;;5096056;28;20391;-68
2022/08/04 10:15:42;;;;;;;0.53;0.50;;;42.10;27.80;;;;;;5096337;28;20415;-68
2022/08/04 10:18:49;;;;;;;1.20;0.60;;;42.50;26.60;;;;;;5095790;28;20403;-69
2022/08/04 10:21:18;;;;;;;0.57;0.47;;;41.90;26.20;;;;;;5078949;28;20460;-69
2022/08/04 10:24:19;;;;;;;0.50;0.50;;;42.10;27.30;;;;;;5095774;28;20395;-70
2022/08/04 10:26:53;;;;;;;0.53;0.50;;;41.70;25.70;;;;;;5095699;28;20395;-69
2022/08/04 10:29:36;;;;;;;0.60;0.60;;;41.00;27.30;;;;;;5095461;28;20457;-69
2022/08/04 10:32:23;;;;;;;0.70;0.50;;;40.60;26.90;;;;;;5077645;28;20766;-68
2022/08/04 10:34:55;;;;;;;0.63;0.63;;;40.70;27.30;;;;;;5095982;28;20946;-69
2022/08/04 10:37:24;;;;;;;0.40;0.40;;;40.70;27.90;;;;;;5096203;28;20402;-69
2022/08/04 10:42:59;;;;;;;0.60;0.40;;;38.80;27.30;;;;;;5056571;28;20431;-69
2022/08/04 10:46:00;;;;;;;0.50;0.50;;;38.40;29.50;;;;;;5095358;28;20442;-68
2022/08/04 10:48:45;;;;;;;0.50;0.40;;;38.80;28.10;;;;;;5095327;28;20391;-68
2022/08/04 10:51:35;;;;;;;0.40;0.40;;;39.00;27.90;;;;;;5095275;28;20935;-70
2022/08/04 10:54:07;;;;;;;0.40;0.40;;;38.80;28.30;;;;;;5095307;28;20411;-69
2022/08/04 10:56:48;;;;;;;0.57;0.43;;;38.10;27.80;;;;;;5095130;28;20394;-70
2022/08/04 10:59:33;;;;;;;0.40;0.40;;;38.00;28.60;;;;;;5095026;28;20464;-68
2022/08/04 11:02:16;;;;;;;1.27;0.50;;;37.90;29.00;;;;;;5095229;28;20395;-70
2022/08/04 11:04:47;;;;;;;0.60;0.50;;;37.70;28.10;;;;;;5095088;28;20429;-70
2022/08/04 11:07:15;;;;;;;0.40;0.40;;;37.60;28.50;;;;;;5095415;28;20545;-68
2022/08/04 11:09:43;;;;;;;0.50;0.50;;;37.00;28.30;;;;;;5094742;28;20458;-67
2022/08/04 11:12:14;;;;;;;0.47;0.47;;;36.40;29.10;;;;;;5095272;28;20433;-68
2022/08/04 11:15:08;;;;;;;0.47;0.40;;;36.30;29.30;;;;;;5095061;28;20510;-70
2022/08/04 11:17:43;;;;;;;0.50;0.40;;;35.80;28.90;;;;;;5094795;28;20460;-68
2022/08/04 11:20:15;;;;;;;0.70;0.50;;;35.50;30.30;;;;;;5076539;28;20422;-67
2022/08/04 11:23:05;;;;;;;0.50;0.50;;;35.20;29.70;;;;;;5094743;28;20461;-69
2022/08/04 11:25:49;;;;;;;0.80;0.50;;;35.20;32.40;;;;;;5094004;28;20443;-70
2022/08/04 11:28:35;;;;;;;0.40;0.40;;;35.30;31.60;;;;;;5094697;28;20423;-70
2022/08/04 11:31:09;;;;;;;0.47;0.47;;;35.30;30.90;;;;;;5094545;28;20939;-70
2022/08/04 11:33:46;;;;;;;0.40;0.40;;;35.30;30.10;;;;;;5094452;28;20399;-68
2022/08/04 11:36:38;;;;;;;0.60;0.60;;;35.50;30.40;;;;;;5094438;28;20433;-67
2022/08/04 11:39:30;;;;;;;0.40;0.40;;;35.20;29.60;;;;;;5094170;28;20540;-68
2022/08/04 11:42:14;;;;;;;0.67;0.60;;;34.60;30.20;;;;;;5094500;28;20399;-68
2022/08/04 11:44:47;;;;;;;0.50;0.40;;;34.70;32.10;;;;;;5094630;28;20514;-67
2022/08/04 11:47:31;;;;;;;0.80;0.70;;;34.90;31.40;;;;;;5094419;28;20399;-69
2022/08/04 11:50:19;;;;;;;0.60;0.50;;;35.00;30.10;;;;;;5094036;28;20801;-69
2022/08/04 11:52:46;;;;;;;0.70;0.70;;;34.90;29.90;;;;;;5094247;28;20429;-69
2022/08/04 11:55:15;;;;;;;0.50;0.47;;;34.80;29.60;;;;;;5094010;28;20794;-70
2022/08/04 11:57:43;;;;;;;0.50;0.40;;;35.00;30.00;;;;;;5094100;28;20395;-69
2022/08/04 12:00:14;;;;;;;0.50;0.50;;;35.00;31.00;;;;;;5093971;28;20395;-70
2022/08/04 12:02:43;;;;;;;0.47;0.43;;;35.10;30.00;;;;;;5093279;28;20510;-68
2022/08/04 12:05:09;;;;;;;0.50;0.43;;;35.00;29.70;;;;;;5094036;28;20517;-69
2022/08/04 12:07:53;;;;;;;0.70;0.60;;;34.80;30.10;;;;;;5093908;28;20956;-68
2022/08/04 12:10:39;;;;;;;0.50;0.40;;;34.70;30.30;;;;;;5075722;28;20974;-69
2022/08/04 12:13:19;;;;;;;0.40;0.40;;;34.50;30.10;;;;;;5093966;28;20397;-69
2022/08/04 12:15:50;;;;;;;0.50;0.50;;;34.50;31.50;;;;;;5093619;28;20902;-67
2022/08/04 12:18:35;;;;;;;0.50;0.40;;;34.60;30.00;;;;;;5075490;28;20917;-69
2022/08/04 12:21:07;;;;;;;0.40;0.40;;;34.70;29.80;;;;;;5093841;28;20398;-69
2022/08/04 12:23:39;;;;;;;0.60;0.60;;;34.60;29.50;;;;;;5093950;28;20440;-70
2022/08/04 12:26:26;;;;;;;0.60;0.60;;;34.60;29.20;;;;;;5093546;28;20464;-69
2022/08/04 12:28:59;;;;;;;0.60;0.60;;;34.50;28.70;;;;;;5074750;28;20417;-67
2022/08/04 12:31:34;;;;;;;0.67;0.67;;;34.40;28.60;;;;;;5093865;28;20857;-70
2022/08/04 12:34:18;;;;;;;0.40;0.40;;;34.30;29.60;;;;;;5093620;28;20482;-69
2022/08/04 12:37:05;;;;;;;0.53;0.53;;;34.30;28.70;;;;;;5093730;28;20391;-68
2022/08/04 12:39:34;;;;;;;0.50;0.50;;;34.20;29.20;;;;;;5093430;28;20407;-67
2022/08/04 12:42:10;;;;;;;0.60;0.60;;;34.30;28.20;;;;;;5093448;28;20399;-68
2022/08/04 12:44:39;;;;;;;0.43;0.43;;;34.40;28.20;;;;;;5093589;28;20419;-69
2022/08/04 12:47:11;;;;;;;0.93;0.70;;;34.10;27.70;;;;;;5093399;28;20895;-68
2022/08/04 12:49:40;;;;;;;0.60;0.60;;;34.00;29.10;;;;;;5093256;28;20434;-68
2022/08/04 12:52:07;;;;;;;0.70;0.53;;;33.90;29.00;;;;;;5093575;28;20793;-67
2022/08/04 12:54:36;;;;;;;0.50;0.50;;;33.80;28.60;;;;;;5093315;28;20438;-68
2022/08/04 12:57:05;;;;;;;0.40;0.40;;;33.70;28.90;;;;;;5093299;28;20418;-68
2022/08/04 12:59:43;;;;;;;0.40;0.40;;;33.80;28.40;;;;;;5093110;28;20895;-69
2022/08/04 13:02:23;;;;;;;0.50;0.50;;;33.90;28.80;;;;;;5093520;28;20414;-68
2022/08/04 13:04:49;;;;;;;0.53;0.53;;;33.90;29.50;;;;;;5093346;28;20487;-68
2022/08/04 13:07:19;;;;;;;0.77;0.50;;;33.90;29.70;;;;;;5093367;28;20778;-69
2022/08/04 13:09:46;;;;;;;0.40;0.40;;;33.80;29.00;;;;;;5074869;28;20824;-68
2022/08/04 13:12:14;;;;;;;0.40;0.40;;;33.70;29.00;;;;;;5093194;28;20494;-70
2022/08/04 13:14:44;;;;;;;0.60;0.60;;;33.70;28.40;;;;;;5094997;28;20433;-68
2022/08/04 13:17:11;;;;;;;0.47;0.47;;;33.70;29.70;;;;;;5079063;28;20420;-68
2022/08/04 13:19:37;;;;;;;0.50;0.47;;;33.70;29.50;;;;;;5097063;28;20411;-69
2022/08/04 13:22:04;;;;;;;0.43;0.43;;;33.80;29.80;;;;;;5097202;28;20406;-69
2022/08/04 13:24:32;;;;;;;0.30;0.30;;;33.80;28.90;;;;;;5097033;28;20454;-69
2022/08/04 13:27:01;;;;;;;0.40;0.40;;;33.70;29.00;;;;;;5097241;28;20414;-70
2022/08/04 13:29:39;;;;;;;0.50;0.50;;;33.60;29.30;;;;;;5096669;28;20446;-69
2022/08/04 13:32:06;;;;;;;0.40;0.40;;;33.60;28.60;;;;;;5096987;28;20398;-70
2022/08/04 13:34:33;;;;;;;0.47;0.40;;;33.50;28.90;;;;;;5096787;28;20799;-68
2022/08/04 13:37:01;;;;;;;0.53;0.53;;;33.40;28.10;;;;;;5096700;28;20411;-68
2022/08/04 13:39:29;;;;;;;0.30;0.30;;;33.30;27.30;;;;;;5078378;28;21040;-68
2022/08/04 13:41:58;;;;;;;0.40;0.40;;;33.20;27.20;;;;;;5096706;28;20449;-68